Terminal Aerodrome Forecast
Issued by NWS El Paso, TX

Home | Current Version | Previous Version | Text Only | Print | Product List | Glossary On
Versions: 1 2 3 4 5 6 7 8 9 10 11 12 13 14 15 16 17
000
FTUS44 KEPZ 311100 RRA
TAFELP
TAF
KELP 311148Z 3112/0112 09011KT P6SM VCSH BKN100 BKN250
     FM311600 10010KT P6SM VCTS SCT070CB BKN100
      TEMPO 3118/3122 5SM TSRA SCT040 OVC070CB
     FM010400 15008KT P6SM SCT070 BKN150=

USA.gov is the U.S. government's official web portal to all federal, state and local government web resources and services.